Latest Coastal Weather Observations for Samuel Hill

IDQ60701

Issued at 6:02 pm EST Thursday 25 August 2016 (issued every 10 minutes, with the page automatically refreshed every 10 minutes)

About coastal observations | Map of coastal stations | Coastal observations for QLD | Marine services | Other Formats
Station Details ID: 033308 Name: SAMUEL HILL AERO Lat: -22.74 Lon: 150.66 Height: 31.0 m
Data from the previous 72 hours. | See also: Recent months at Samuel Hill
Date/Time
EST
Temp
°C
Wind Pressure Rain since
9am
mm
Weather Cloud Vis
km
Sea
Height
m
Swell
Dir  Spd
kts
Gust
kts
hPa Trend Height
m
Period
s
Dir
25/06:00pm 16.9 NNE 1 4 1013.6 - 0.4 - Cloudy 10 - - - -
25/05:30pm 17.3 NE 3 4 1013.3 - 0.4 - - 10 - - - -
25/05:00pm 17.5 NE 3 5 1013.2 - 0.4 - - 10 - - - -
25/04:30pm 17.6 NE 2 3 1013.1 - 0.4 - - 10 - - - -
25/04:00pm 17.6 CALM 0 3 1013.0 - 0.4 - Partly cloudy 10 - - - -
25/03:30pm 17.8 CALM 0 0 1012.5 - 0.4 - Partly cloudy 10 - - - -
25/03:00pm 17.6 SSE 3 5 1012.2 - 0.4 Rain Cloudy 10 - - - -
25/02:30pm 17.6 S 5 7 1012.2 - 0.2 - Partly cloudy 10 - - - -
25/02:00pm 17.6 SSE 4 5 1012.3 - 0.0 - Partly cloudy 10 - - - -
25/01:30pm 17.9 S 5 7 1013.2 - 0.0 - Partly cloudy 10 - - - -
25/01:00pm 18.6 S 7 10 1012.4 - 0.0 - Partly cloudy 10 - - - -
25/12:30pm 18.1 S 8 12 1012.6 - 0.0 - Partly cloudy 10 - - - -
25/12:00pm 17.8 S 6 9 1013.2 - 0.0 - Cloudy 10 - - - -
25/11:30am 18.1 SSE 7 11 1013.5 - 0.0 - Partly cloudy 10 - - - -
25/11:00am 18.4 S 6 9 1013.5 - 0.0 - Partly cloudy 10 - - - -
25/10:30am 19.2 W 4 7 1013.5 - 0.0 - Cloudy 10 - - - -
25/10:00am 18.7 NW 1 4 1014.0 - 0.0 - Partly cloudy 10 - - - -
25/09:30am 18.3 N 1 3 1014.2 - 0.0 - Partly cloudy 10 - - - -
25/09:00am 17.9 NNE 2 5 1013.9 - 34.0 - Cloudy 10 - - - -
25/08:30am 17.6 CALM 0 0 1013.6 - 34.0 - Cloudy 10 - - - -
25/08:00am 17.5 CALM 0 0 1013.8 - 34.0 - Cloudy 10 - - - -
25/07:30am 17.3 CALM 0 3 1013.4 - 34.0 - Cloudy 10 - - - -
25/07:00am 17.1 WNW 2 4 1012.4 - 33.8 - Partly cloudy 10 - - - -
25/06:30am 17.0 WNW 3 5 1012.7 - 33.8 - Cloudy 10 - - - -
25/06:00am 16.8 NNW 4 6 1012.6 - 33.8 Showers Cloudy 10 - - - -
25/05:30am 16.8 NNE 3 6 1012.1 - 33.6 - Partly cloudy 10 - - - -
25/05:00am 16.9 NW 5 7 1012.4 - 33.6 - Partly cloudy 10 - - - -
25/04:30am 17.1 CALM 0 1 1011.7 - 33.4 - Cloudy 10 - - - -
25/04:00am 17.3 WSW 6 8 1011.0 - 33.4 - Cloudy 10 - - - -
25/03:30am 17.1 WSW 4 5 1011.5 - 33.4 - Cloudy 10 - - - -
25/03:00am 17.3 W 1 4 1011.9 - 33.4 Showers Cloudy 10 - - - -
25/02:30am 17.3 NW 1 3 1011.5 - 33.2 - Cloudy 10 - - - -
25/02:00am 17.3 CALM 0 0 1011.6 - 33.2 - Cloudy 10 - - - -
25/01:30am 17.3 NNW 1 4 1012.1 - 33.2 - Partly cloudy 10 - - - -
25/01:29am 17.3 CALM 0 3 1012.1 - 33.2 - Partly cloudy 10 - - - -
25/01:05am 17.3 NW 2 5 1012.4 - 33.2 - Cloudy 7 - - - -
25/01:00am 17.3 NW 3 5 1012.1 - 33.2 - Cloudy 10 - - - -
25/12:30am 17.1 N 4 7 1012.7 - 33.2 - Partly cloudy 10 - - - -
25/12:00am 17.2 NW 4 6 1013.2 - 33.2 Showers Cloudy 10 - - - -
 
Date/Time
EST
Temp
°C
Wind Pressure Rain since
9am
mm
Weather Cloud Vis
km
Sea
Height
m
Swell
Dir  Spd
kts
Gust
kts
hPa Trend Height
m
Period
s
Dir
24/11:30pm 17.1 NNW 5 6 1013.5 - 32.6 - Partly cloudy 10 - - - -
24/11:00pm 17.4 CALM 0 0 1013.5 - 32.4 - Partly cloudy 10 - - - -
24/10:53pm 17.4 WNW 1 5 1013.5 - 32.0 - Partly cloudy 10 - - - -
24/10:30pm 17.4 NW 6 10 1013.8 - 30.2 - Partly cloudy 8 - - - -
24/10:17pm 18.2 WNW 4 6 1013.6 - 28.8 - Partly cloudy 7 - - - -
24/10:01pm 18.2 CALM 0 4 1012.6 - 27.6 - Partly cloudy 10 - - - -
24/10:00pm 18.1 NW 1 4 1012.7 - 27.6 - Partly cloudy 10 - - - -
24/09:49pm 18.2 NNW 6 11 1012.8 - 27.2 - Partly cloudy 7 - - - -
24/09:30pm 18.3 NNE 3 5 1011.8 - 25.6 - Cloudy 10 - - - -
24/09:00pm 18.4 N 1 4 1011.7 - 25.6 Rain Mostly cloudy 10 - - - -
24/08:58pm 18.3 CALM 0 0 1011.7 - 25.6 - Cloudy 10 - - - -
24/08:43pm 18.3 N 1 3 1011.4 - 25.6 - Cloudy 6 - - - -
24/08:30pm 18.3 NNE 4 5 1011.6 - 25.4 - Partly cloudy 10 - - - -
24/08:00pm 18.5 NNE 4 5 1011.8 - 25.0 - Partly cloudy 10 - - - -
24/07:30pm 18.7 NNW 5 8 1011.9 - 25.0 - Partly cloudy 10 - - - -
24/07:00pm 18.8 WNW 2 3 1011.1 - 24.6 - Cloudy 10 - - - -
24/06:30pm 18.8 WNW 4 7 1011.0 - 24.4 - Cloudy 10 - - - -
24/06:00pm 18.9 WSW 2 4 1010.6 - 24.2 Recent precip. Cloudy 10 - - - -
24/05:30pm 19.0 WSW 1 3 1010.4 - 24.2 - Cloudy 10 - - - -
24/05:00pm 18.9 SW 3 6 1010.1 - 23.4 - Partly cloudy 10 - - - -
24/04:30pm 19.0 SW 5 8 1010.2 - 22.8 - Partly cloudy 10 - - - -
24/04:14pm 19.4 SW 9 17 1009.8 - 22.8 - Partly cloudy 10 - - - -
24/04:00pm 19.5 SW 9 14 1009.6 - 22.6 - Partly cloudy 4 - - - -
24/03:49pm 19.2 SW 11 23 1009.6 - 20.6 - Partly cloudy 0.5 - - - -
24/03:46pm 19.2 WSW 17 39 1009.5 - 19.0 - Partly cloudy 0.5 - - - -
24/03:38pm 19.9 WNW 17 39 1009.3 - 2.2 - Partly cloudy 7 - - - -
24/03:37pm 21.6 WNW 15 39 1008.7 - 0.4 - Partly cloudy 10 - - - -
24/03:30pm 24.3 NNW 10 14 1007.9 - 0.0 - Partly cloudy 10 - - - -
24/03:00pm 25.6 NNW 11 16 1008.0 - 0.0 - Mostly clear 10 - - - -
24/02:30pm 26.3 NNW 10 15 1007.7 - 0.0 - - 10 - - - -
24/02:00pm 26.0 N 12 17 1008.0 - 0.0 - Partly cloudy 10 - - - -
24/01:30pm 26.7 NNW 14 21 1008.5 - 0.0 - - 10 - - - -
24/01:00pm 25.8 NNW 13 19 1008.8 - 0.0 - Partly cloudy 10 - - - -
24/12:30pm 26.6 NNW 11 19 1009.3 - 0.0 - Partly cloudy 10 - - - -
24/12:00pm 26.0 NNW 13 20 1009.4 - 0.0 - Mostly clear 10 - - - -
24/11:30am 25.5 NNW 13 19 1009.9 - 0.0 - - 10 - - - -
24/11:00am 25.4 NNW 15 21 1010.6 - 0.0 - Partly cloudy 10 - - - -
24/10:30am 25.1 NNW 12 21 1011.3 - 0.0 - Partly cloudy 10 - - - -
24/10:00am 24.5 NNW 12 18 1011.3 - 0.0 - Partly cloudy 10 - - - -
24/09:30am 25.0 NNW 12 20 1011.1 - 0.0 - Partly cloudy 10 - - - -
24/09:00am 23.9 NNW 11 18 1011.1 - 0.8 - - 10 - - - -
24/08:46am 23.4 NNW 11 17 1011.1 - 0.8 - Partly cloudy 10 - - - -
24/08:30am 22.9 NNW 10 16 1011.1 - 0.8 - Partly cloudy 10 - - - -
24/08:00am 21.9 NNW 5 9 1011.1 - 0.8 - Partly cloudy 10 - - - -
24/07:30am 21.2 WNW 3 6 1010.8 - 0.8 - Cloudy 10 - - - -
24/07:00am 20.9 N 3 5 1010.3 - 0.8 - Cloudy 10 - - - -
24/06:30am 20.9 N 5 7 1010.0 - 0.8 - Cloudy 10 - - - -
24/06:00am 20.8 NNW 5 8 1009.5 - 0.8 - Cloudy 10 - - - -
24/05:30am 20.2 NE 2 3 1009.1 - 0.8 - Partly cloudy 10 - - - -
24/05:00am 20.1 NE 3 4 1008.8 - 0.8 - Partly cloudy 10 - - - -
24/04:30am 19.9 NNE 3 5 1008.5 - 0.8 - Cloudy 10 - - - -
24/04:00am 19.8 NNW 4 5 1008.4 - 0.8 - Partly cloudy 10 - - - -
24/03:54am 19.6 NNW 4 6 1008.5 - 0.8 - Partly cloudy 10 - - - -
24/03:30am 19.2 NNW 5 5 1008.5 - 0.8 - - 9 - - - -
24/03:00am 19.3 NNW 5 6 1008.7 - 0.8 - - 10 - - - -
24/02:30am 19.2 NNW 5 5 1008.8 - 0.8 - - 10 - - - -
24/02:00am 19.2 NW 4 5 1009.4 - 0.8 - - 10 - - - -
24/01:30am 19.9 NNW 5 6 1009.8 - 0.8 - - 10 - - - -
24/01:00am 20.2 NNW 5 6 1010.3 - 0.6 - - 10 - - - -
24/12:30am 20.4 NNW 6 7 1010.5 - 0.6 - - 10 - - - -
24/12:00am 20.8 NNW 5 7 1010.9 - 0.6 - - 10 - - - -
 
Date/Time
EST
Temp
°C
Wind Pressure Rain since
9am
mm
Weather Cloud Vis
km
Sea
Height
m
Swell
Dir  Spd
kts
Gust
kts
hPa Trend Height
m
Period
s
Dir
23/11:30pm 20.8 N 5 7 1011.2 - 0.6 - - 10 - - - -
23/11:00pm 20.3 N 3 5 1011.5 - 0.6 - Partly cloudy 10 - - - -
23/10:59pm 20.4 N 3 5 1011.4 - 0.6 - Partly cloudy 10 - - - -
23/10:30pm 20.7 NE 1 4 1011.7 - 0.6 - Partly cloudy 10 - - - -
23/10:00pm 20.2 CALM 0 0 1012.0 - 0.6 - Cloudy 10 - - - -
23/09:30pm 19.7 CALM 0 0 1012.1 - 0.6 - Partly cloudy 10 - - - -
23/09:23pm 19.7 CALM 0 0 1012.2 - 0.6 - Partly cloudy 9 - - - -
23/09:16pm 19.8 CALM 0 0 1012.2 - 0.6 - Partly cloudy 10 - - - -
23/09:00pm 20.3 CALM 0 0 1012.2 - 0.6 Rain Partly cloudy 10 - - - -
23/08:39pm 20.7 CALM 0 0 1012.3 - 0.6 - Partly cloudy 10 - - - -
23/08:30pm 20.3 CALM 0 0 1012.3 - 0.6 - Partly cloudy 9 - - - -
23/08:21pm 20.4 CALM 0 0 1012.3 - 0.6 - Partly cloudy 7 - - - -
23/08:00pm 20.6 CALM 0 0 1012.3 - 0.0 - Partly cloudy 10 - - - -
23/07:30pm 20.3 CALM 0 0 1012.0 - 0.0 - Partly cloudy 10 - - - -
23/07:00pm 20.9 NE 3 3 1011.9 - 0.0 - Partly cloudy 10 - - - -
23/06:30pm 21.2 NE 3 4 1011.7 - 0.0 - Partly cloudy 10 - - - -
23/06:00pm 21.8 NE 4 5 1011.5 - 0.0 - Partly cloudy 10 - - - -
23/05:30pm 22.6 NNE 6 9 1011.3 - 0.0 - - 10 - - - -
23/05:00pm 23.7 NNE 8 12 1010.9 - 0.0 - - 10 - - - -
23/04:30pm 24.7 NNE 7 10 1010.7 - 0.0 - Partly cloudy 10 - - - -
23/04:00pm 24.3 NNE 9 13 1010.8 - 0.0 - Partly cloudy 10 - - - -
23/03:30pm 25.0 NNE 9 14 1010.7 - 0.0 - Partly cloudy 10 - - - -
23/03:00pm 25.2 NNE 9 15 1010.6 - 0.0 - Mostly cloudy 10 - - - -
23/02:30pm 25.1 NNE 11 15 1010.6 - 0.0 - Partly cloudy 10 - - - -
23/02:00pm 24.8 NNE 10 15 1010.9 - 0.0 - Partly cloudy 10 - - - -
23/01:30pm 24.5 NNE 11 15 1011.2 - 0.0 - Partly cloudy 10 - - - -
23/01:00pm 25.2 NNE 10 14 1011.5 - 0.0 - Partly cloudy 10 - - - -
23/12:30pm 26.3 NE 10 18 1011.8 - 0.0 - Partly cloudy 10 - - - -
23/12:00pm 24.6 NE 9 14 1012.3 - 0.0 - Cloudy 10 - - - -
23/11:30am 24.6 NE 8 11 1012.9 - 0.0 - Partly cloudy 10 - - - -
23/11:00am 24.6 NNE 8 12 1013.3 - 0.0 - Partly cloudy 10 - - - -
23/10:30am 24.1 NNE 10 14 1013.5 - 0.0 - Partly cloudy 10 - - - -
23/10:00am 23.7 NE 10 15 1013.6 - 0.0 - Partly cloudy 10 - - - -
23/09:30am 23.2 NE 7 13 1013.9 - 0.0 - Partly cloudy 10 - - - -
23/09:00am 23.1 NE 10 17 1013.9 - 0.0 - Cloudy 10 - - - -
23/08:56am 23.1 NE 9 17 1013.9 - 0.0 - Partly cloudy 10 - - - -
23/08:33am 22.3 NE 5 6 1014.0 - 0.0 - Partly cloudy 10 - - - -
23/08:30am 22.2 NE 5 6 1014.0 - 0.0 - Partly cloudy 10 - - - -
23/08:00am 20.4 CALM 0 0 1013.9 - 0.0 - - 10 - - - -
23/07:30am 17.1 CALM 0 0 1014.0 - 0.0 - Partly cloudy 10 - - - -
23/07:00am 15.0 CALM 0 0 1014.0 - 0.0 - Partly cloudy 10 - - - -
23/06:30am 13.5 CALM 0 0 1014.0 - 0.0 - Partly cloudy 10 - - - -
23/06:00am 13.7 CALM 0 0 1013.9 - 0.0 - Mostly clear 10 - - - -
23/05:30am 13.8 CALM 0 0 1013.8 - 0.0 - - 10 - - - -
23/05:00am 13.8 CALM 0 0 1013.5 - 0.0 - - 10 - - - -
23/04:30am 14.3 CALM 0 0 1013.4 - 0.0 - Partly cloudy 10 - - - -
23/04:00am 14.7 CALM 0 0 1013.4 - 0.0 - Partly cloudy 10 - - - -
23/03:30am 15.0 CALM 0 0 1013.4 - 0.0 - Partly cloudy 10 - - - -
23/03:00am 15.3 CALM 0 0 1013.6 - 0.0 - Cloudy 10 - - - -
23/02:30am 15.2 CALM 0 0 1013.8 - 0.0 - Cloudy 10 - - - -
23/02:00am 15.0 CALM 0 0 1013.9 - 0.0 - Cloudy 10 - - - -
23/01:30am 14.9 CALM 0 0 1014.2 - 0.0 - Partly cloudy 10 - - - -
23/01:00am 14.7 CALM 0 0 1014.4 - 0.0 - - 10 - - - -
23/12:30am 15.4 CALM 0 0 1014.7 - 0.0 - - 10 - - - -
23/12:00am 15.2 CALM 0 0 1014.8 - 0.0 - - 10 - - - -
 
Date/Time
EST
Temp
°C
Wind Pressure Rain since
9am
mm
Weather Cloud Vis
km
Sea
Height
m
Swell
Dir  Spd
kts
Gust
kts
hPa Trend Height
m
Period
s
Dir
22/11:30pm 15.7 CALM 0 0 1015.0 - 0.0 - - 10 - - - -
22/11:00pm 15.8 CALM 0 0 1015.2 - 0.0 - Partly cloudy 10 - - - -
22/10:30pm 16.6 CALM 0 0 1015.0 - 0.0 - - 10 - - - -
22/10:00pm 16.9 CALM 0 0 1015.2 - 0.0 - Partly cloudy 10 - - - -
22/09:30pm 17.3 CALM 0 0 1015.0 - 0.0 - Partly cloudy 10 - - - -
22/09:00pm 17.8 CALM 0 0 1015.0 - 0.0 - Partly cloudy 10 - - - -
22/08:30pm 18.4 CALM 0 0 1015.0 - 0.0 - Partly cloudy 10 - - - -
22/08:00pm 19.0 CALM 0 0 1015.0 - 0.0 - Partly cloudy 10 - - - -
22/07:30pm 19.8 CALM 0 0 1014.7 - 0.0 - Partly cloudy 10 - - - -
22/07:00pm 20.3 CALM 0 0 1014.5 - 0.0 - Cloudy 10 - - - -
22/06:30pm 20.6 E 3 4 1014.2 - 0.0 - Cloudy 10 - - - -

Other Formats:

Comma delimited format used in spreadsheet applications
http://www.bom.gov.au/fwo/IDQ60701/IDQ60701.94370.axf

JavaScript Object Notation format (JSON) in row-major order
http://www.bom.gov.au/fwo/IDQ60701/IDQ60701.94370.json